Terminal Aerodrome Forecast
Issued by NWS Binghamton, NY

Home | Current Version | Previous Version | Text Only | Print | Product List | Glossary On
Versions: 1 2 3 4 5 6 7 8 9 10 11 12 13 14 15 16 17 18 19
000
FTUS41 KBGM 042323
TAFAVP
TAF
KAVP 042323Z 0500/0524 10003KT P6SM SCT040
     FM050300 10003KT P6SM BKN025
     FM050600 10003KT 3SM BR OVC012
      TEMPO 0508/0512 2SM BR OVC007
     FM051400 VRB04KT P6SM BKN045
     FM051900 25006KT P6SM SCT050=

USA.gov is the U.S. government's official web portal to all federal, state and local government web resources and services.